Mendocino — WDB9115 — position and weather

sailwx.info

Track history (hours):
 
Tides and Currents Weather Stations Pressure Air Temp Water Temp Dewpoint Dewpoint Depression Visibility Wind Speed Wind Dir Waves Ship Positions

Mendocino

Owner: Golden Gate Bridge Hwy & Transp Dist., Larkspur, CA. More information available from US FCC via Universal Licensing System and Coast Guard Vessel Documentation Center.

Last reported at 2018-Jun-22 03:59 UTC. Time now 2018-Jun-22 09:22 UTC.
Position N 37°57' W 122°31'.

Length 48 m.

Type: Ship. MMSI: 366970020.

Date/timePositionNaut miles runAvg speedWind from/ knotsBaromVisibWave heightAir tempDewpointWater temp
2018-Jun-22 03:59N 37°57' W 122°31'0 0.1
2018-Jun-22 03:30N 37°57' W 122°30'0 0.0
2018-Jun-22 03:00N 37°57' W 122°30'713.2
2018-Jun-22 02:31N 37°52' W 122°25'0 0.9
2018-Jun-22 02:01N 37°52' W 122°25'713.3
2018-Jun-22 01:30N 37°57' W 122°30'1020.6
2018-Jun-22 01:00N 37°48' W 122°24'3 6.3
2018-Jun-22 00:31N 37°51' W 122°25'815.1
2018-Jun-22 00:00N 37°57' W 122°31'1021.0
2018-Jun-21 23:30N 37°48' W 122°24'3 5.9
2018-Jun-21 23:01N 37°51' W 122°24'815.5
2018-Jun-21 22:30N 37°57' W 122°30'1021.0
2018-Jun-21 22:01N 37°48' W 122°24'612.3
2018-Jun-21 21:31N 37°54' W 122°26'5 9.1
2018-Jun-21 21:00N 37°57' W 122°30'0 0.0
2018-Jun-21 20:30N 37°57' W 122°30'0 0.1
2018-Jun-21 20:00N 37°57' W 122°31'1019.5
2018-Jun-21 19:30N 37°49' W 122°23'3 5.8
2018-Jun-21 19:01N 37°52' W 122°25'713.6
2018-Jun-21 18:30N 37°57' W 122°30'1019.6
2018-Jun-21 18:00N 37°49' W 122°23'2 5.0
2018-Jun-21 17:31N 37°51' W 122°24'714.6
2018-Jun-21 17:00N 37°57' W 122°30'3 6.2
2018-Jun-21 16:30N 37°55' W 122°27'815.7
2018-Jun-21 16:00N 37°48' W 122°24'1018.6
2018-Jun-21 15:28N 37°56' W 122°30'0 0.2
2018-Jun-21 15:00N 37°56' W 122°30'1019.7
2018-Jun-21 14:31N 37°48' W 122°24'1020.9
2018-Jun-21 14:00N 37°57' W 122°30'713.9
2018-Jun-21 13:30N 37°52' W 122°24'3 5.5
2018-Jun-21 13:00N 37°54' W 122°27'4 8.4
2018-Jun-21 12:30N 37°57' W 122°31'0 0.0
2018-Jun-21 00:55N 37°56' W 122°30'1024.9
2018-Jun-21 00:31N 37°48' W 122°23'3 5.0
2018-Jun-21 00:01N 37°50' W 122°24'816.0
2018-Jun-20 23:30N 37°57' W 122°30'1020.8
2018-Jun-20 23:00N 37°48' W 122°24'612.5
2018-Jun-20 22:30N 37°54' W 122°26'5 9.1
2018-Jun-20 22:00N 37°57' W 122°30'0 0.1
2018-Jun-20 21:30N 37°57' W 122°31'0 0.0
2018-Jun-20 21:00N 37°57' W 122°31'0 0.0
2018-Jun-20 20:30N 37°57' W 122°31'0 0.0
2018-Jun-20 20:00N 37°57' W 122°31'0 0.0
2018-Jun-20 19:30N 37°57' W 122°31'0 0.0
2018-Jun-20 19:00N 37°57' W 122°31'0 0.0
2018-Jun-20 18:30N 37°57' W 122°31'0 0.0
2018-Jun-20 18:00N 37°57' W 122°31'0 0.0
2018-Jun-20 17:30N 37°57' W 122°31'0 0.0
2018-Jun-20 16:59N 37°57' W 122°31'1022.4
2018-Jun-20 16:31N 37°48' W 122°24'918.8
2018-Jun-20 16:01N 37°56' W 122°29'1 2.0
2018-Jun-20 15:30N 37°57' W 122°30'1019.8
2018-Jun-20 14:59N 37°48' W 122°24'1021.2
2018-Jun-20 14:30N 37°57' W 122°30'0 0.4
2018-Jun-20 14:00N 37°57' W 122°31'0 0.0
2018-Jun-20 13:30N 37°57' W 122°31'0 0.0
2018-Jun-20 04:08N 37°57' W 122°30'0 2.2
2018-Jun-20 04:00N 37°57' W 122°30'0 0.7
2018-Jun-20 03:29N 37°57' W 122°30'0 0.0
2018-Jun-20 03:00N 37°57' W 122°30'713.1
2018-Jun-20 02:30N 37°52' W 122°25'0 0.6
2018-Jun-20 02:00N 37°52' W 122°25'612.6
2018-Jun-20 01:30N 37°57' W 122°30'1021.4
2018-Jun-20 01:00N 37°48' W 122°24'5 9.8
2018-Jun-20 00:30N 37°52' W 122°25'611.8
2018-Jun-20 00:01N 37°57' W 122°31'1020.7
2018-Jun-19 23:30N 37°48' W 122°24'611.5
2018-Jun-19 23:00N 37°53' W 122°26'510.1
2018-Jun-19 22:30N 37°57' W 122°30'1020.9
2018-Jun-19 22:00N 37°48' W 122°24'815.3
2018-Jun-19 21:30N 37°55' W 122°27'3 6.2
2018-Jun-19 21:00N 37°57' W 122°31'0 0.0
2018-Jun-19 20:30N 37°57' W 122°31'0 0.0
2018-Jun-19 20:00N 37°57' W 122°31'1021.0
2018-Jun-19 19:30N 37°48' W 122°23'3 6.7
2018-Jun-19 19:00N 37°51' W 122°25'714.5
2018-Jun-19 18:30N 37°57' W 122°30'1020.5
2018-Jun-19 18:00N 37°48' W 122°23'4 7.6
2018-Jun-19 17:30N 37°52' W 122°25'713.0
2018-Jun-19 17:00N 37°57' W 122°30'4 7.7
2018-Jun-19 16:30N 37°54' W 122°27'714.1
2018-Jun-19 16:00N 37°48' W 122°24'919.0
2018-Jun-19 15:30N 37°56' W 122°29'0 0.5
2018-Jun-19 15:00N 37°56' W 122°30'1019.4
2018-Jun-19 14:30N 37°48' W 122°24'1020.8
2018-Jun-19 14:00N 37°57' W 122°30'715.0
2018-Jun-19 13:30N 37°51' W 122°24'4 7.4
2018-Jun-19 13:00N 37°54' W 122°27'4 7.7
2018-Jun-19 12:30N 37°57' W 122°31'0 0.0
2018-Jun-19 12:00N 37°57' W 122°31'0 0.0
2018-Jun-19 11:30N 37°57' W 122°31'0 0.0
2018-Jun-19 11:00N 37°57' W 122°31'0 0.0
2018-Jun-19 10:30N 37°57' W 122°31'0 0.0
2018-Jun-19 09:59N 37°57' W 122°31'0 0.0
2018-Jun-19 09:30N 37°57' W 122°31'0 0.0
2018-Jun-19 08:59N 37°57' W 122°31'0 0.0
2018-Jun-19 08:30N 37°57' W 122°31'0 0.0
2018-Jun-19 08:00N 37°57' W 122°31'0 0.0
2018-Jun-19 07:30N 37°57' W 122°31'0 0.0
2018-Jun-19 07:00N 37°57' W 122°31'0 0.0
2018-Jun-19 06:30N 37°57' W 122°31'0 0.0
2018-Jun-19 06:00N 37°57' W 122°31'0 0.0
2018-Jun-19 05:30N 37°57' W 122°31'0 0.1
2018-Jun-19 04:59N 37°57' W 122°30'0 0.1
2018-Jun-19 04:30N 37°57' W 122°31'0 0.0
2018-Jun-19 04:00N 37°57' W 122°31'0 0.0
2018-Jun-19 03:30N 37°57' W 122°31'0 0.0
2018-Jun-19 03:00N 37°57' W 122°31'0 0.0
2018-Jun-19 02:30N 37°57' W 122°31'0 0.0
2018-Jun-19 02:00N 37°57' W 122°31'0 0.0
2018-Jun-19 01:30N 37°57' W 122°31'0 0.0
2018-Jun-19 01:00N 37°57' W 122°31'1019.7
2018-Jun-19 00:30N 37°49' W 122°23'1 1.5
2018-Jun-19 00:00N 37°48' W 122°23'1020.2
2018-Jun-18 23:30N 37°57' W 122°30'1021.3
2018-Jun-18 23:00N 37°48' W 122°24'713.5
2018-Jun-18 22:30N 37°54' W 122°27'4 8.0
2018-Jun-18 22:00N 37°57' W 122°31'0 0.0
2018-Jun-18 21:30N 37°57' W 122°31'0 0.0
2018-Jun-18 21:00N 37°57' W 122°31'0 0.0
2018-Jun-18 20:30N 37°57' W 122°31'0 0.0
2018-Jun-18 20:00N 37°57' W 122°31'0 0.0
2018-Jun-18 19:30N 37°57' W 122°31'0 0.0
2018-Jun-18 19:00N 37°57' W 122°31'0 0.0
2018-Jun-18 18:30N 37°57' W 122°31'0 0.0
2018-Jun-18 18:01N 37°57' W 122°31'0 0.0
2018-Jun-18 17:30N 37°57' W 122°31'0 0.0
2018-Jun-18 17:01N 37°57' W 122°31'917.7
2018-Jun-18 16:31N 37°50' W 122°23'714.3
2018-Jun-18 16:01N 37°56' W 122°28'3 6.8
2018-Jun-18 15:30N 37°53' W 122°26'510.5
2018-Jun-18 15:00N 37°48' W 122°23'1019.9
2018-Jun-18 14:30N 37°57' W 122°31'0 0.0
2018-Jun-18 14:00N 37°57' W 122°31'0 0.0
2018-Jun-18 13:31N 37°57' W 122°31'  
2018-Jun-16 02:49N 37°57' W 122°30'825.2
2018-Jun-16 02:31N 37°51' W 122°24'1 2.7
2018-Jun-16 02:00N 37°52' W 122°25'713.4
2018-Jun-16 01:30N 37°57' W 122°30'1020.8
2018-Jun-16 01:00N 37°48' W 122°24'510.8
2018-Jun-16 00:30N 37°53' W 122°26'510.4
2018-Jun-16 00:00N 37°57' W 122°30'1020.8
2018-Jun-15 23:31N 37°48' W 122°24'4 8.9
2018-Jun-15 23:01N 37°52' W 122°25'612.5
2018-Jun-15 22:30N 37°57' W 122°30'1021.1
2018-Jun-15 22:00N 37°48' W 122°24'816.3
2018-Jun-15 21:30N 37°55' W 122°28'3 5.3
2018-Jun-15 21:00N 37°57' W 122°31'0 0.0
2018-Jun-15 20:30N 37°57' W 122°31'0 0.1
2018-Jun-15 19:54N 37°57' W 122°30'1024.9
2018-Jun-15 19:30N 37°49' W 122°23'4 7.2
2018-Jun-15 19:01N 37°52' W 122°25'612.2
2018-Jun-15 18:30N 37°57' W 122°30'1019.9
2018-Jun-15 18:01N 37°49' W 122°23'713.7
2018-Jun-15 17:30N 37°55' W 122°27'3 6.4
2018-Jun-15 17:00N 37°57' W 122°31'1020.3
2018-Jun-15 16:31N 37°48' W 122°23'917.5
2018-Jun-15 16:01N 37°56' W 122°29'1 2.1
2018-Jun-15 15:30N 37°56' W 122°30'1020.6
2018-Jun-15 15:00N 37°48' W 122°24'1020.2
2018-Jun-15 14:29N 37°57' W 122°30'0 0.2
2018-Jun-15 13:59N 37°57' W 122°31'0 0.0
2018-Jun-15 13:30N 37°57' W 122°31'0 0.0
2018-Jun-15 03:38N 37°57' W 122°31'0 0.0
2018-Jun-15 03:30N 37°57' W 122°31'0 0.1
2018-Jun-15 03:00N 37°57' W 122°30'714.5
2018-Jun-15 02:31N 37°52' W 122°24'1 1.4
2018-Jun-15 02:01N 37°52' W 122°25'612.8
2018-Jun-15 01:30N 37°57' W 122°30'1020.8
2018-Jun-15 01:00N 37°48' W 122°24'5 9.6
2018-Jun-15 00:30N 37°52' W 122°25'611.9
2018-Jun-15 00:00N 37°57' W 122°30'1020.8
2018-Jun-14 23:30N 37°48' W 122°24'4 7.9
2018-Jun-14 23:01N 37°52' W 122°25'713.4
2018-Jun-14 22:30N 37°57' W 122°30'1021.6
2018-Jun-14 22:01N 37°48' W 122°24'816.0
2018-Jun-14 21:30N 37°55' W 122°28'3 5.1
2018-Jun-14 20:58N 37°57' W 122°31'0 0.0
2018-Jun-14 20:30N 37°57' W 122°31'0 0.0
2018-Jun-14 20:00N 37°57' W 122°31'1020.4
2018-Jun-14 19:31N 37°48' W 122°23'4 8.4
2018-Jun-14 19:01N 37°52' W 122°25'612.1
2018-Jun-14 18:30N 37°57' W 122°30'1020.4
2018-Jun-14 18:01N 37°48' W 122°23'4 7.6
2018-Jun-14 17:31N 37°52' W 122°25'6 7.8
2018-Jun-14 16:41N 37°57' W 122°30'314.5
2018-Jun-14 16:30N 37°55' W 122°27'816.5
2018-Jun-14 16:01N 37°48' W 122°24'1019.1
2018-Jun-14 15:30N 37°56' W 122°30'0 0.1
2018-Jun-14 15:00N 37°56' W 122°30'1019.3
2018-Jun-14 14:31N 37°48' W 122°23'1020.6
2018-Jun-14 14:00N 37°57' W 122°30'815.4
2018-Jun-14 13:31N 37°51' W 122°24'4 8.3
2018-Jun-14 13:01N 37°54' W 122°27'3 7.0
2018-Jun-14 12:30N 37°57' W 122°31'0 0.0
2018-Jun-14 12:00N 37°57' W 122°31'0 0.0
2018-Jun-14 03:42N 37°57' W 122°31'0 0.0
2018-Jun-14 03:30N 37°57' W 122°31'0 0.0
2018-Jun-14 03:00N 37°57' W 122°31'713.7
2018-Jun-14 02:31N 37°52' W 122°24'1 1.6
2018-Jun-14 02:01N 37°52' W 122°25'612.0
2018-Jun-14 01:30N 37°57' W 122°30'1020.7
2018-Jun-14 01:00N 37°48' W 122°24'4 8.5
2018-Jun-14 00:30N 37°52' W 122°25'713.0
2018-Jun-14 00:00N 37°57' W 122°30'1020.9
2018-Jun-13 23:30N 37°48' W 122°24'4 8.6
2018-Jun-13 23:01N 37°52' W 122°25'713.0
2018-Jun-13 22:31N 37°57' W 122°30'1020.9
2018-Jun-13 22:01N 37°48' W 122°24'917.6
2018-Jun-13 21:30N 37°56' W 122°28'2 3.9
2018-Jun-13 21:00N 37°57' W 122°31'0 0.1
2018-Jun-13 20:30N 37°57' W 122°30'0 0.0
2018-Jun-13 20:00N 37°57' W 122°30'1019.9
2018-Jun-13 19:30N 37°49' W 122°23'3 5.0
2018-Jun-13 19:01N 37°51' W 122°24'815.0
2018-Jun-13 18:30N 37°57' W 122°30'1020.0
2018-Jun-13 18:01N 37°49' W 122°23'4 7.4
2018-Jun-13 17:31N 37°52' W 122°25'612.9
2018-Jun-13 17:00N 37°57' W 122°30'3 5.7
2018-Jun-13 16:30N 37°55' W 122°27'816.1
2018-Jun-13 16:00N 37°48' W 122°24'1019.0
2018-Jun-13 15:30N 37°56' W 122°29'0 0.3
2018-Jun-13 15:00N 37°56' W 122°29'918.9
2018-Jun-13 14:30N 37°48' W 122°23'1020.7
2018-Jun-13 14:00N 37°57' W 122°30'816.0
2018-Jun-13 13:30N 37°51' W 122°24'510.1
2018-Jun-13 13:00N 37°55' W 122°27'3 6.0
2018-Jun-13 12:31N 37°57' W 122°31'0 0.0
2018-Jun-13 00:59N 37°57' W 122°31'919.5
2018-Jun-13 00:31N 37°49' W 122°23'1 2.2
2018-Jun-13 00:01N 37°48' W 122°23'1020.5
2018-Jun-12 23:30N 37°57' W 122°30'1020.9
2018-Jun-12 23:00N 37°48' W 122°24'816.2
2018-Jun-12 22:31N 37°55' W 122°28'3 5.3
2018-Jun-12 22:01N 37°57' W 122°30'0 0.1
2018-Jun-12 21:30N 37°57' W 122°31'0 0.0
2018-Jun-12 21:00N 37°57' W 122°31'0 0.0
2018-Jun-12 20:30N 37°57' W 122°31'0 0.0
2018-Jun-12 19:59N 37°57' W 122°31'0 0.0
2018-Jun-12 19:30N 37°57' W 122°31'0 0.0
2018-Jun-12 18:58N 37°57' W 122°31'0 0.0
2018-Jun-12 18:29N 37°57' W 122°31'0 0.0
2018-Jun-12 18:00N 37°57' W 122°31'0 0.0
2018-Jun-12 17:30N 37°57' W 122°31'0 0.0
2018-Jun-12 17:00N 37°57' W 122°31'1021.2
2018-Jun-12 16:31N 37°48' W 122°23'1018.9
2018-Jun-12 16:00N 37°56' W 122°30'1 1.6
2018-Jun-12 15:30N 37°57' W 122°30'1021.0
2018-Jun-12 15:00N 37°48' W 122°24'1020.3
2018-Jun-12 14:30N 37°57' W 122°30'0 0.4
2018-Jun-12 14:00N 37°57' W 122°31'  
Track history (hours):
 
Tides and Currents Weather Stations Pressure Air Temp Water Temp Dewpoint Dewpoint Depression Visibility Wind Speed Wind Dir Waves Ship Positions

Mendocino

Owner: Golden Gate Bridge Hwy & Transp Dist., Larkspur, CA. More information available from US FCC via Universal Licensing System and Coast Guard Vessel Documentation Center.

Last reported at 2018-Jun-22 03:59 UTC. Time now 2018-Jun-22 09:22 UTC.
Position N 37°57' W 122°31'.

Length 48 m.

Type: Ship. MMSI: 366970020.

Date/timePositionNaut miles runAvg speedWind from/ knotsBaromVisibWave heightAir tempDewpointWater temp
2018-Jun-22 03:59N 37°57' W 122°31'0 0.1
2018-Jun-22 03:30N 37°57' W 122°30'0 0.0
2018-Jun-22 03:00N 37°57' W 122°30'713.2
2018-Jun-22 02:31N 37°52' W 122°25'0 0.9
2018-Jun-22 02:01N 37°52' W 122°25'713.3
2018-Jun-22 01:30N 37°57' W 122°30'1020.6
2018-Jun-22 01:00N 37°48' W 122°24'3 6.3
2018-Jun-22 00:31N 37°51' W 122°25'815.1
2018-Jun-22 00:00N 37°57' W 122°31'1021.0
2018-Jun-21 23:30N 37°48' W 122°24'3 5.9
2018-Jun-21 23:01N 37°51' W 122°24'815.5
2018-Jun-21 22:30N 37°57' W 122°30'1021.0
2018-Jun-21 22:01N 37°48' W 122°24'612.3
2018-Jun-21 21:31N 37°54' W 122°26'5 9.1
2018-Jun-21 21:00N 37°57' W 122°30'0 0.0
2018-Jun-21 20:30N 37°57' W 122°30'0 0.1
2018-Jun-21 20:00N 37°57' W 122°31'1019.5
2018-Jun-21 19:30N 37°49' W 122°23'3 5.8
2018-Jun-21 19:01N 37°52' W 122°25'713.6
2018-Jun-21 18:30N 37°57' W 122°30'1019.6
2018-Jun-21 18:00N 37°49' W 122°23'2 5.0
2018-Jun-21 17:31N 37°51' W 122°24'714.6
2018-Jun-21 17:00N 37°57' W 122°30'3 6.2
2018-Jun-21 16:30N 37°55' W 122°27'815.7
2018-Jun-21 16:00N 37°48' W 122°24'1018.6
2018-Jun-21 15:28N 37°56' W 122°30'0 0.2
2018-Jun-21 15:00N 37°56' W 122°30'1019.7
2018-Jun-21 14:31N 37°48' W 122°24'1020.9
2018-Jun-21 14:00N 37°57' W 122°30'713.9
2018-Jun-21 13:30N 37°52' W 122°24'3 5.5
2018-Jun-21 13:00N 37°54' W 122°27'4 8.4
2018-Jun-21 12:30N 37°57' W 122°31'0 0.0
2018-Jun-21 00:55N 37°56' W 122°30'1024.9
2018-Jun-21 00:31N 37°48' W 122°23'3 5.0
2018-Jun-21 00:01N 37°50' W 122°24'816.0
2018-Jun-20 23:30N 37°57' W 122°30'1020.8
2018-Jun-20 23:00N 37°48' W 122°24'612.5
2018-Jun-20 22:30N 37°54' W 122°26'5 9.1
2018-Jun-20 22:00N 37°57' W 122°30'0 0.1
2018-Jun-20 21:30N 37°57' W 122°31'0 0.0
2018-Jun-20 21:00N 37°57' W 122°31'0 0.0
2018-Jun-20 20:30N 37°57' W 122°31'0 0.0
2018-Jun-20 20:00N 37°57' W 122°31'0 0.0
2018-Jun-20 19:30N 37°57' W 122°31'0 0.0
2018-Jun-20 19:00N 37°57' W 122°31'0 0.0
2018-Jun-20 18:30N 37°57' W 122°31'0 0.0
2018-Jun-20 18:00N 37°57' W 122°31'0 0.0
2018-Jun-20 17:30N 37°57' W 122°31'0 0.0
2018-Jun-20 16:59N 37°57' W 122°31'1022.4
2018-Jun-20 16:31N 37°48' W 122°24'918.8
2018-Jun-20 16:01N 37°56' W 122°29'1 2.0
2018-Jun-20 15:30N 37°57' W 122°30'1019.8
2018-Jun-20 14:59N 37°48' W 122°24'1021.2
2018-Jun-20 14:30N 37°57' W 122°30'0 0.4
2018-Jun-20 14:00N 37°57' W 122°31'0 0.0
2018-Jun-20 13:30N 37°57' W 122°31'0 0.0
2018-Jun-20 04:08N 37°57' W 122°30'0 2.2
2018-Jun-20 04:00N 37°57' W 122°30'0 0.7
2018-Jun-20 03:29N 37°57' W 122°30'0 0.0
2018-Jun-20 03:00N 37°57' W 122°30'713.1
2018-Jun-20 02:30N 37°52' W 122°25'0 0.6
2018-Jun-20 02:00N 37°52' W 122°25'612.6
2018-Jun-20 01:30N 37°57' W 122°30'1021.4
2018-Jun-20 01:00N 37°48' W 122°24'5 9.8
2018-Jun-20 00:30N 37°52' W 122°25'611.8
2018-Jun-20 00:01N 37°57' W 122°31'1020.7
2018-Jun-19 23:30N 37°48' W 122°24'611.5
2018-Jun-19 23:00N 37°53' W 122°26'510.1
2018-Jun-19 22:30N 37°57' W 122°30'1020.9
2018-Jun-19 22:00N 37°48' W 122°24'815.3
2018-Jun-19 21:30N 37°55' W 122°27'3 6.2
2018-Jun-19 21:00N 37°57' W 122°31'0 0.0
2018-Jun-19 20:30N 37°57' W 122°31'0 0.0
2018-Jun-19 20:00N 37°57' W 122°31'1021.0
2018-Jun-19 19:30N 37°48' W 122°23'3 6.7
2018-Jun-19 19:00N 37°51' W 122°25'714.5
2018-Jun-19 18:30N 37°57' W 122°30'1020.5
2018-Jun-19 18:00N 37°48' W 122°23'4 7.6
2018-Jun-19 17:30N 37°52' W 122°25'713.0
2018-Jun-19 17:00N 37°57' W 122°30'4 7.7
2018-Jun-19 16:30N 37°54' W 122°27'714.1
2018-Jun-19 16:00N 37°48' W 122°24'919.0
2018-Jun-19 15:30N 37°56' W 122°29'0 0.5
2018-Jun-19 15:00N 37°56' W 122°30'1019.4
2018-Jun-19 14:30N 37°48' W 122°24'1020.8
2018-Jun-19 14:00N 37°57' W 122°30'715.0
2018-Jun-19 13:30N 37°51' W 122°24'4 7.4
2018-Jun-19 13:00N 37°54' W 122°27'4 7.7
2018-Jun-19 12:30N 37°57' W 122°31'0 0.0
2018-Jun-19 12:00N 37°57' W 122°31'0 0.0
2018-Jun-19 11:30N 37°57' W 122°31'0 0.0
2018-Jun-19 11:00N 37°57' W 122°31'0 0.0
2018-Jun-19 10:30N 37°57' W 122°31'0 0.0
2018-Jun-19 09:59N 37°57' W 122°31'0 0.0
2018-Jun-19 09:30N 37°57' W 122°31'0 0.0
2018-Jun-19 08:59N 37°57' W 122°31'0 0.0
2018-Jun-19 08:30N 37°57' W 122°31'0 0.0
2018-Jun-19 08:00N 37°57' W 122°31'0 0.0
2018-Jun-19 07:30N 37°57' W 122°31'0 0.0
2018-Jun-19 07:00N 37°57' W 122°31'0 0.0
2018-Jun-19 06:30N 37°57' W 122°31'0 0.0
2018-Jun-19 06:00N 37°57' W 122°31'0 0.0
2018-Jun-19 05:30N 37°57' W 122°31'0 0.1
2018-Jun-19 04:59N 37°57' W 122°30'0 0.1
2018-Jun-19 04:30N 37°57' W 122°31'0 0.0
2018-Jun-19 04:00N 37°57' W 122°31'0 0.0
2018-Jun-19 03:30N 37°57' W 122°31'0 0.0
2018-Jun-19 03:00N 37°57' W 122°31'0 0.0
2018-Jun-19 02:30N 37°57' W 122°31'0 0.0
2018-Jun-19 02:00N 37°57' W 122°31'0 0.0
2018-Jun-19 01:30N 37°57' W 122°31'0 0.0
2018-Jun-19 01:00N 37°57' W 122°31'1019.7
2018-Jun-19 00:30N 37°49' W 122°23'1 1.5
2018-Jun-19 00:00N 37°48' W 122°23'1020.2
2018-Jun-18 23:30N 37°57' W 122°30'1021.3
2018-Jun-18 23:00N 37°48' W 122°24'713.5
2018-Jun-18 22:30N 37°54' W 122°27'4 8.0
2018-Jun-18 22:00N 37°57' W 122°31'0 0.0
2018-Jun-18 21:30N 37°57' W 122°31'0 0.0
2018-Jun-18 21:00N 37°57' W 122°31'0 0.0
2018-Jun-18 20:30N 37°57' W 122°31'0 0.0
2018-Jun-18 20:00N 37°57' W 122°31'0 0.0
2018-Jun-18 19:30N 37°57' W 122°31'0 0.0
2018-Jun-18 19:00N 37°57' W 122°31'0 0.0
2018-Jun-18 18:30N 37°57' W 122°31'0 0.0
2018-Jun-18 18:01N 37°57' W 122°31'0 0.0
2018-Jun-18 17:30N 37°57' W 122°31'0 0.0
2018-Jun-18 17:01N 37°57' W 122°31'917.7
2018-Jun-18 16:31N 37°50' W 122°23'714.3
2018-Jun-18 16:01N 37°56' W 122°28'3 6.8
2018-Jun-18 15:30N 37°53' W 122°26'510.5
2018-Jun-18 15:00N 37°48' W 122°23'1019.9
2018-Jun-18 14:30N 37°57' W 122°31'0 0.0
2018-Jun-18 14:00N 37°57' W 122°31'0 0.0
2018-Jun-18 13:31N 37°57' W 122°31'  
2018-Jun-16 02:49N 37°57' W 122°30'825.2
2018-Jun-16 02:31N 37°51' W 122°24'1 2.7
2018-Jun-16 02:00N 37°52' W 122°25'713.4
2018-Jun-16 01:30N 37°57' W 122°30'1020.8
2018-Jun-16 01:00N 37°48' W 122°24'510.8
2018-Jun-16 00:30N 37°53' W 122°26'510.4
2018-Jun-16 00:00N 37°57' W 122°30'1020.8
2018-Jun-15 23:31N 37°48' W 122°24'4 8.9
2018-Jun-15 23:01N 37°52' W 122°25'612.5
2018-Jun-15 22:30N 37°57' W 122°30'1021.1
2018-Jun-15 22:00N 37°48' W 122°24'816.3
2018-Jun-15 21:30N 37°55' W 122°28'3 5.3
2018-Jun-15 21:00N 37°57' W 122°31'0 0.0
2018-Jun-15 20:30N 37°57' W 122°31'0 0.1
2018-Jun-15 19:54N 37°57' W 122°30'1024.9
2018-Jun-15 19:30N 37°49' W 122°23'4 7.2
2018-Jun-15 19:01N 37°52' W 122°25'612.2
2018-Jun-15 18:30N 37°57' W 122°30'1019.9
2018-Jun-15 18:01N 37°49' W 122°23'713.7
2018-Jun-15 17:30N 37°55' W 122°27'3 6.4
2018-Jun-15 17:00N 37°57' W 122°31'1020.3
2018-Jun-15 16:31N 37°48' W 122°23'917.5
2018-Jun-15 16:01N 37°56' W 122°29'1 2.1
2018-Jun-15 15:30N 37°56' W 122°30'1020.6
2018-Jun-15 15:00N 37°48' W 122°24'1020.2
2018-Jun-15 14:29N 37°57' W 122°30'0 0.2
2018-Jun-15 13:59N 37°57' W 122°31'0 0.0
2018-Jun-15 13:30N 37°57' W 122°31'0 0.0
2018-Jun-15 03:38N 37°57' W 122°31'0 0.0
2018-Jun-15 03:30N 37°57' W 122°31'0 0.1
2018-Jun-15 03:00N 37°57' W 122°30'714.5
2018-Jun-15 02:31N 37°52' W 122°24'1 1.4
2018-Jun-15 02:01N 37°52' W 122°25'612.8
2018-Jun-15 01:30N 37°57' W 122°30'1020.8
2018-Jun-15 01:00N 37°48' W 122°24'5 9.6
2018-Jun-15 00:30N 37°52' W 122°25'611.9
2018-Jun-15 00:00N 37°57' W 122°30'1020.8
2018-Jun-14 23:30N 37°48' W 122°24'4 7.9
2018-Jun-14 23:01N 37°52' W 122°25'713.4
2018-Jun-14 22:30N 37°57' W 122°30'1021.6
2018-Jun-14 22:01N 37°48' W 122°24'816.0
2018-Jun-14 21:30N 37°55' W 122°28'3 5.1
2018-Jun-14 20:58N 37°57' W 122°31'0 0.0
2018-Jun-14 20:30N 37°57' W 122°31'0 0.0
2018-Jun-14 20:00N 37°57' W 122°31'1020.4
2018-Jun-14 19:31N 37°48' W 122°23'4 8.4
2018-Jun-14 19:01N 37°52' W 122°25'612.1
2018-Jun-14 18:30N 37°57' W 122°30'1020.4
2018-Jun-14 18:01N 37°48' W 122°23'4 7.6
2018-Jun-14 17:31N 37°52' W 122°25'6 7.8
2018-Jun-14 16:41N 37°57' W 122°30'314.5
2018-Jun-14 16:30N 37°55' W 122°27'816.5
2018-Jun-14 16:01N 37°48' W 122°24'1019.1
2018-Jun-14 15:30N 37°56' W 122°30'0 0.1
2018-Jun-14 15:00N 37°56' W 122°30'1019.3
2018-Jun-14 14:31N 37°48' W 122°23'1020.6
2018-Jun-14 14:00N 37°57' W 122°30'815.4
2018-Jun-14 13:31N 37°51' W 122°24'4 8.3
2018-Jun-14 13:01N 37°54' W 122°27'3 7.0
2018-Jun-14 12:30N 37°57' W 122°31'0 0.0
2018-Jun-14 12:00N 37°57' W 122°31'0 0.0
2018-Jun-14 03:42N 37°57' W 122°31'0 0.0
2018-Jun-14 03:30N 37°57' W 122°31'0 0.0
2018-Jun-14 03:00N 37°57' W 122°31'713.7
2018-Jun-14 02:31N 37°52' W 122°24'1 1.6
2018-Jun-14 02:01N 37°52' W 122°25'612.0
2018-Jun-14 01:30N 37°57' W 122°30'1020.7
2018-Jun-14 01:00N 37°48' W 122°24'4 8.5
2018-Jun-14 00:30N 37°52' W 122°25'713.0
2018-Jun-14 00:00N 37°57' W 122°30'1020.9
2018-Jun-13 23:30N 37°48' W 122°24'4 8.6
2018-Jun-13 23:01N 37°52' W 122°25'713.0
2018-Jun-13 22:31N 37°57' W 122°30'1020.9
2018-Jun-13 22:01N 37°48' W 122°24'917.6
2018-Jun-13 21:30N 37°56' W 122°28'2 3.9
2018-Jun-13 21:00N 37°57' W 122°31'0 0.1
2018-Jun-13 20:30N 37°57' W 122°30'0 0.0
2018-Jun-13 20:00N 37°57' W 122°30'1019.9
2018-Jun-13 19:30N 37°49' W 122°23'3 5.0
2018-Jun-13 19:01N 37°51' W 122°24'815.0
2018-Jun-13 18:30N 37°57' W 122°30'1020.0
2018-Jun-13 18:01N 37°49' W 122°23'4 7.4
2018-Jun-13 17:31N 37°52' W 122°25'612.9
2018-Jun-13 17:00N 37°57' W 122°30'3 5.7
2018-Jun-13 16:30N 37°55' W 122°27'816.1
2018-Jun-13 16:00N 37°48' W 122°24'1019.0
2018-Jun-13 15:30N 37°56' W 122°29'0 0.3
2018-Jun-13 15:00N 37°56' W 122°29'918.9
2018-Jun-13 14:30N 37°48' W 122°23'1020.7
2018-Jun-13 14:00N 37°57' W 122°30'816.0
2018-Jun-13 13:30N 37°51' W 122°24'510.1
2018-Jun-13 13:00N 37°55' W 122°27'3 6.0
2018-Jun-13 12:31N 37°57' W 122°31'0 0.0
2018-Jun-13 00:59N 37°57' W 122°31'919.5
2018-Jun-13 00:31N 37°49' W 122°23'1 2.2
2018-Jun-13 00:01N 37°48' W 122°23'1020.5
2018-Jun-12 23:30N 37°57' W 122°30'1020.9
2018-Jun-12 23:00N 37°48' W 122°24'816.2
2018-Jun-12 22:31N 37°55' W 122°28'3 5.3
2018-Jun-12 22:01N 37°57' W 122°30'0 0.1
2018-Jun-12 21:30N 37°57' W 122°31'0 0.0
2018-Jun-12 21:00N 37°57' W 122°31'0 0.0
2018-Jun-12 20:30N 37°57' W 122°31'0 0.0
2018-Jun-12 19:59N 37°57' W 122°31'0 0.0
2018-Jun-12 19:30N 37°57' W 122°31'0 0.0
2018-Jun-12 18:58N 37°57' W 122°31'0 0.0
2018-Jun-12 18:29N 37°57' W 122°31'0 0.0
2018-Jun-12 18:00N 37°57' W 122°31'0 0.0
2018-Jun-12 17:30N 37°57' W 122°31'0 0.0
2018-Jun-12 17:00N 37°57' W 122°31'1021.2
2018-Jun-12 16:31N 37°48' W 122°23'1018.9
2018-Jun-12 16:00N 37°56' W 122°30'1 1.6
2018-Jun-12 15:30N 37°57' W 122°30'1021.0
2018-Jun-12 15:00N 37°48' W 122°24'1020.3
2018-Jun-12 14:30N 37°57' W 122°30'0 0.4
2018-Jun-12 14:00N 37°57' W 122°31'  

Dump ship's entire track history